Rea, Missouri
Current Conditions -  °F | °C
As of 3:39 PM on Friday 19 Dec 2014 (Local Time) from KSTJ Reporting Station
Overcast Overcast  
Wind Chill: 26°   Ceiling: 900
Heat Index: 32°   Visibility: 9mi
Dew Point: 29°   Wind: 6mph
Humidity: 88%   Direction: 210°SSW
Pressure: 30.22"   Gusts: NA
Location:  40.06°N, 94.76°W
Report Text: KSTJ 192139Z 21005KT 9SM OVC009 00/M02 A3022 RMK AO2 T00001017
Loading
Personal Weather Stations






























Interactive Weather Map New forecast layout! Learn more

10-Day Weather Forecast

Advertisements
Track Severe Weather on mobile